sensor_id;sensor_type;location;lat;lon;timestamp;P1;durP1;ratioP1;P2;durP2;ratioP2
78120;SDS011;67585;44.802;10.332;2023-07-13T00:02:21;10.43;;;0.90;;
78120;SDS011;67585;44.802;10.332;2023-07-13T00:04:46;9.10;;;0.65;;
78120;SDS011;67585;44.802;10.332;2023-07-13T00:07:12;2.92;;;0.22;;
78120;SDS011;67585;44.802;10.332;2023-07-13T00:09:39;3.20;;;0.32;;
78120;SDS011;67585;44.802;10.332;2023-07-13T00:12:05;6.15;;;0.95;;
78120;SDS011;67585;44.802;10.332;2023-07-13T00:14:47;6.65;;;0.30;;
78120;SDS011;67585;44.802;10.332;2023-07-13T00:17:14;6.30;;;0.40;;
78120;SDS011;67585;44.802;10.332;2023-07-13T00:19:39;6.07;;;0.40;;
78120;SDS011;67585;44.802;10.332;2023-07-13T00:22:05;5.63;;;0.30;;
78120;SDS011;67585;44.802;10.332;2023-07-13T00:24:30;4.35;;;0.25;;
78120;SDS011;67585;44.802;10.332;2023-07-13T00:26:56;6.25;;;0.10;;
78120;SDS011;67585;44.802;10.332;2023-07-13T00:29:21;2.38;;;0.10;;
78120;SDS011;67585;44.802;10.332;2023-07-13T00:31:46;4.25;;;0.38;;
78120;SDS011;67585;44.802;10.332;2023-07-13T00:34:12;6.22;;;0.10;;
78120;SDS011;67585;44.802;10.332;2023-07-13T00:36:37;2.90;;;0.40;;
78120;SDS011;67585;44.802;10.332;2023-07-13T00:39:03;2.47;;;0.28;;
78120;SDS011;67585;44.802;10.332;2023-07-13T00:41:29;4.13;;;0.20;;
78120;SDS011;67585;44.802;10.332;2023-07-13T00:43:54;4.80;;;0.32;;
78120;SDS011;67585;44.802;10.332;2023-07-13T00:46:24;16.77;;;0.35;;
78120;SDS011;67585;44.802;10.332;2023-07-13T00:48:52;3.17;;;0.20;;
78120;SDS011;67585;44.802;10.332;2023-07-13T00:51:31;7.47;;;0.38;;
78120;SDS011;67585;44.802;10.332;2023-07-13T00:54:12;0.95;;;0.00;;
78120;SDS011;67585;44.802;10.332;2023-07-13T00:56:41;1.17;;;0.47;;
78120;SDS011;67585;44.802;10.332;2023-07-13T00:59:10;3.72;;;0.10;;
78120;SDS011;67585;44.802;10.332;2023-07-13T01:01:37;2.67;;;0.20;;
78120;SDS011;67585;44.802;10.332;2023-07-13T01:06:32;3.03;;;0.43;;
78120;SDS011;67585;44.802;10.332;2023-07-13T01:09:02;1.73;;;1.00;;
78120;SDS011;67585;44.802;10.332;2023-07-13T01:11:28;4.78;;;0.88;;
78120;SDS011;67585;44.802;10.332;2023-07-13T01:13:53;1.67;;;0.10;;
78120;SDS011;67585;44.802;10.332;2023-07-13T01:16:24;4.47;;;0.20;;
78120;SDS011;67585;44.802;10.332;2023-07-13T01:18:52;4.45;;;0.20;;
78120;SDS011;67585;44.802;10.332;2023-07-13T01:21:19;5.22;;;0.13;;
78120;SDS011;67585;44.802;10.332;2023-07-13T01:23:45;4.68;;;0.20;;
78120;SDS011;67585;44.802;10.332;2023-07-13T01:26:10;5.20;;;0.10;;
78120;SDS011;67585;44.802;10.332;2023-07-13T01:28:37;4.57;;;0.10;;
78120;SDS011;67585;44.802;10.332;2023-07-13T01:31:03;5.15;;;0.10;;
78120;SDS011;67585;44.802;10.332;2023-07-13T01:33:29;1.98;;;0.10;;
78120;SDS011;67585;44.802;10.332;2023-07-13T01:35:55;5.50;;;0.40;;
78120;SDS011;67585;44.802;10.332;2023-07-13T01:38:22;4.22;;;0.32;;
78120;SDS011;67585;44.802;10.332;2023-07-13T01:40:49;7.20;;;0.40;;
78120;SDS011;67585;44.802;10.332;2023-07-13T01:43:16;5.57;;;0.77;;
78120;SDS011;67585;44.802;10.332;2023-07-13T01:45:42;4.70;;;0.63;;
78120;SDS011;67585;44.802;10.332;2023-07-13T01:48:09;1.80;;;0.13;;
78120;SDS011;67585;44.802;10.332;2023-07-13T01:50:34;5.28;;;0.38;;
78120;SDS011;67585;44.802;10.332;2023-07-13T01:53:00;2.10;;;0.10;;
78120;SDS011;67585;44.802;10.332;2023-07-13T01:55:27;1.95;;;0.20;;
78120;SDS011;67585;44.802;10.332;2023-07-13T01:57:53;4.25;;;0.45;;
78120;SDS011;67585;44.802;10.332;2023-07-13T02:00:18;4.50;;;0.32;;
78120;SDS011;67585;44.802;10.332;2023-07-13T02:02:44;6.07;;;0.35;;
78120;SDS011;67585;44.802;10.332;2023-07-13T02:05:10;4.28;;;0.10;;
78120;SDS011;67585;44.802;10.332;2023-07-13T02:07:36;3.70;;;0.22;;
78120;SDS011;67585;44.802;10.332;2023-07-13T02:10:02;4.45;;;0.20;;
78120;SDS011;67585;44.802;10.332;2023-07-13T02:12:28;5.18;;;0.52;;
78120;SDS011;67585;44.802;10.332;2023-07-13T02:14:53;4.15;;;0.20;;
78120;SDS011;67585;44.802;10.332;2023-07-13T02:17:18;1.92;;;0.20;;
78120;SDS011;67585;44.802;10.332;2023-07-13T02:19:44;3.78;;;0.10;;
78120;SDS011;67585;44.802;10.332;2023-07-13T02:22:09;1.60;;;0.28;;
78120;SDS011;67585;44.802;10.332;2023-07-13T02:24:35;4.82;;;0.38;;
78120;SDS011;67585;44.802;10.332;2023-07-13T02:27:00;4.53;;;0.10;;
78120;SDS011;67585;44.802;10.332;2023-07-13T02:29:25;4.28;;;0.22;;
78120;SDS011;67585;44.802;10.332;2023-07-13T02:31:51;4.13;;;0.20;;
78120;SDS011;67585;44.802;10.332;2023-07-13T02:34:16;2.20;;;0.20;;
78120;SDS011;67585;44.802;10.332;2023-07-13T02:36:42;3.78;;;0.22;;
78120;SDS011;67585;44.802;10.332;2023-07-13T02:39:07;4.97;;;0.10;;
78120;SDS011;67585;44.802;10.332;2023-07-13T02:41:33;2.60;;;0.10;;
78120;SDS011;67585;44.802;10.332;2023-07-13T02:43:59;6.60;;;0.77;;
78120;SDS011;67585;44.802;10.332;2023-07-13T02:46:32;7.45;;;0.90;;
78120;SDS011;67585;44.802;10.332;2023-07-13T02:48:59;7.50;;;0.52;;
78120;SDS011;67585;44.802;10.332;2023-07-13T02:51:25;3.05;;;0.65;;
78120;SDS011;67585;44.802;10.332;2023-07-13T02:53:51;3.42;;;0.10;;
78120;SDS011;67585;44.802;10.332;2023-07-13T02:56:17;7.00;;;0.50;;
78120;SDS011;67585;44.802;10.332;2023-07-13T02:58:46;7.43;;;0.40;;
78120;SDS011;67585;44.802;10.332;2023-07-13T03:01:12;4.40;;;1.05;;
78120;SDS011;67585;44.802;10.332;2023-07-13T03:03:38;3.25;;;0.20;;
78120;SDS011;67585;44.802;10.332;2023-07-13T03:06:04;4.90;;;0.20;;
78120;SDS011;67585;44.802;10.332;2023-07-13T03:08:32;5.95;;;0.28;;
78120;SDS011;67585;44.802;10.332;2023-07-13T03:11:05;3.75;;;0.28;;
78120;SDS011;67585;44.802;10.332;2023-07-13T03:13:32;4.25;;;0.30;;
78120;SDS011;67585;44.802;10.332;2023-07-13T03:15:58;3.35;;;0.10;;
78120;SDS011;67585;44.802;10.332;2023-07-13T03:18:26;3.75;;;0.32;;
78120;SDS011;67585;44.802;10.332;2023-07-13T03:20:52;4.88;;;0.50;;
78120;SDS011;67585;44.802;10.332;2023-07-13T03:23:18;6.00;;;0.17;;
78120;SDS011;67585;44.802;10.332;2023-07-13T03:25:44;1.70;;;0.10;;
78120;SDS011;67585;44.802;10.332;2023-07-13T03:28:10;6.85;;;0.32;;
78120;SDS011;67585;44.802;10.332;2023-07-13T03:30:36;4.18;;;0.70;;
78120;SDS011;67585;44.802;10.332;2023-07-13T03:33:02;4.20;;;0.50;;
78120;SDS011;67585;44.802;10.332;2023-07-13T03:35:28;3.75;;;0.15;;
78120;SDS011;67585;44.802;10.332;2023-07-13T03:37:53;1.52;;;0.10;;
78120;SDS011;67585;44.802;10.332;2023-07-13T03:40:19;2.22;;;0.10;;
78120;SDS011;67585;44.802;10.332;2023-07-13T03:42:44;1.67;;;0.20;;
78120;SDS011;67585;44.802;10.332;2023-07-13T03:45:09;5.20;;;0.43;;
78120;SDS011;67585;44.802;10.332;2023-07-13T03:47:35;2.13;;;0.52;;
78120;SDS011;67585;44.802;10.332;2023-07-13T03:50:00;4.82;;;0.10;;
78120;SDS011;67585;44.802;10.332;2023-07-13T03:52:26;5.65;;;0.30;;
78120;SDS011;67585;44.802;10.332;2023-07-13T03:54:51;4.53;;;0.10;;
78120;SDS011;67585;44.802;10.332;2023-07-13T03:57:17;3.80;;;0.30;;
78120;SDS011;67585;44.802;10.332;2023-07-13T03:59:43;7.18;;;0.30;;
78120;SDS011;67585;44.802;10.332;2023-07-13T04:02:09;6.43;;;1.02;;
78120;SDS011;67585;44.802;10.332;2023-07-13T04:04:35;7.45;;;0.50;;
78120;SDS011;67585;44.802;10.332;2023-07-13T04:07:00;3.35;;;0.43;;
78120;SDS011;67585;44.802;10.332;2023-07-13T04:09:26;6.65;;;0.63;;
78120;SDS011;67585;44.802;10.332;2023-07-13T04:11:51;2.33;;;0.20;;
78120;SDS011;67585;44.802;10.332;2023-07-13T04:14:17;4.22;;;0.90;;
78120;SDS011;67585;44.802;10.332;2023-07-13T04:16:42;2.60;;;0.20;;
78120;SDS011;67585;44.802;10.332;2023-07-13T04:19:08;6.72;;;0.20;;
78120;SDS011;67585;44.802;10.332;2023-07-13T04:24:00;5.85;;;0.20;;
78120;SDS011;67585;44.802;10.332;2023-07-13T04:26:26;2.97;;;0.20;;
78120;SDS011;67585;44.802;10.332;2023-07-13T04:28:51;6.10;;;0.60;;
78120;SDS011;67585;44.802;10.332;2023-07-13T04:31:17;5.53;;;0.70;;
78120;SDS011;67585;44.802;10.332;2023-07-13T04:33:43;6.55;;;0.40;;
78120;SDS011;67585;44.802;10.332;2023-07-13T04:36:08;8.48;;;0.65;;
78120;SDS011;67585;44.802;10.332;2023-07-13T04:38:34;9.10;;;0.47;;
78120;SDS011;67585;44.802;10.332;2023-07-13T04:41:01;4.78;;;0.30;;
78120;SDS011;67585;44.802;10.332;2023-07-13T04:43:28;5.30;;;0.20;;
78120;SDS011;67585;44.802;10.332;2023-07-13T04:45:54;9.10;;;0.57;;
78120;SDS011;67585;44.802;10.332;2023-07-13T04:48:20;6.18;;;0.40;;
78120;SDS011;67585;44.802;10.332;2023-07-13T04:50:45;7.88;;;0.80;;
78120;SDS011;67585;44.802;10.332;2023-07-13T04:53:12;4.15;;;0.80;;
78120;SDS011;67585;44.802;10.332;2023-07-13T04:55:38;6.43;;;0.60;;
78120;SDS011;67585;44.802;10.332;2023-07-13T04:58:04;2.83;;;0.20;;
78120;SDS011;67585;44.802;10.332;2023-07-13T05:00:30;5.07;;;0.52;;
78120;SDS011;67585;44.802;10.332;2023-07-13T05:02:56;6.10;;;0.45;;
78120;SDS011;67585;44.802;10.332;2023-07-13T05:05:23;6.45;;;0.35;;
78120;SDS011;67585;44.802;10.332;2023-07-13T05:07:50;4.57;;;0.73;;
78120;SDS011;67585;44.802;10.332;2023-07-13T05:10:16;3.25;;;0.75;;
78120;SDS011;67585;44.802;10.332;2023-07-13T05:12:41;6.95;;;0.68;;
78120;SDS011;67585;44.802;10.332;2023-07-13T05:15:07;5.40;;;0.95;;
78120;SDS011;67585;44.802;10.332;2023-07-13T05:17:32;6.65;;;0.75;;
78120;SDS011;67585;44.802;10.332;2023-07-13T05:19:58;5.13;;;0.50;;
78120;SDS011;67585;44.802;10.332;2023-07-13T05:22:23;5.63;;;0.55;;
78120;SDS011;67585;44.802;10.332;2023-07-13T05:24:48;5.95;;;0.45;;
78120;SDS011;67585;44.802;10.332;2023-07-13T05:27:14;2.72;;;0.47;;
78120;SDS011;67585;44.802;10.332;2023-07-13T05:29:40;9.65;;;0.90;;
78120;SDS011;67585;44.802;10.332;2023-07-13T05:32:05;6.45;;;0.77;;
78120;SDS011;67585;44.802;10.332;2023-07-13T05:34:31;3.25;;;0.82;;
78120;SDS011;67585;44.802;10.332;2023-07-13T05:36:57;6.80;;;0.95;;
78120;SDS011;67585;44.802;10.332;2023-07-13T05:39:22;12.15;;;1.40;;
78120;SDS011;67585;44.802;10.332;2023-07-13T05:41:48;4.38;;;0.30;;
78120;SDS011;67585;44.802;10.332;2023-07-13T05:44:13;7.35;;;0.77;;
78120;SDS011;67585;44.802;10.332;2023-07-13T05:46:39;6.25;;;0.60;;
78120;SDS011;67585;44.802;10.332;2023-07-13T05:49:04;7.15;;;0.77;;
78120;SDS011;67585;44.802;10.332;2023-07-13T05:51:29;6.57;;;0.68;;
78120;SDS011;67585;44.802;10.332;2023-07-13T05:53:55;5.30;;;0.52;;
78120;SDS011;67585;44.802;10.332;2023-07-13T05:56:20;4.85;;;0.40;;
78120;SDS011;67585;44.802;10.332;2023-07-13T05:58:47;3.88;;;0.50;;
78120;SDS011;67585;44.802;10.332;2023-07-13T06:01:13;10.55;;;0.30;;
78120;SDS011;67585;44.802;10.332;2023-07-13T06:03:40;5.18;;;0.50;;
78120;SDS011;67585;44.802;10.332;2023-07-13T06:06:06;2.75;;;0.60;;
78120;SDS011;67585;44.802;10.332;2023-07-13T06:08:33;3.63;;;0.32;;
78120;SDS011;67585;44.802;10.332;2023-07-13T06:11:06;4.50;;;0.40;;
78120;SDS011;67585;44.802;10.332;2023-07-13T06:13:34;7.75;;;0.20;;
78120;SDS011;67585;44.802;10.332;2023-07-13T06:16:00;5.82;;;1.10;;
78120;SDS011;67585;44.802;10.332;2023-07-13T06:18:29;8.48;;;0.60;;
78120;SDS011;67585;44.802;10.332;2023-07-13T06:20:55;7.05;;;0.73;;
78120;SDS011;67585;44.802;10.332;2023-07-13T06:23:20;5.53;;;1.02;;
78120;SDS011;67585;44.802;10.332;2023-07-13T06:25:46;4.82;;;0.70;;
78120;SDS011;67585;44.802;10.332;2023-07-13T06:28:11;7.78;;;0.90;;
78120;SDS011;67585;44.802;10.332;2023-07-13T06:30:38;4.57;;;0.55;;
78120;SDS011;67585;44.802;10.332;2023-07-13T06:33:04;9.70;;;0.47;;
78120;SDS011;67585;44.802;10.332;2023-07-13T06:35:29;7.18;;;0.85;;
78120;SDS011;67585;44.802;10.332;2023-07-13T06:37:55;13.07;;;0.70;;
78120;SDS011;67585;44.802;10.332;2023-07-13T06:40:20;4.28;;;0.38;;
78120;SDS011;67585;44.802;10.332;2023-07-13T06:42:45;6.80;;;1.23;;
78120;SDS011;67585;44.802;10.332;2023-07-13T06:45:11;5.07;;;0.35;;
78120;SDS011;67585;44.802;10.332;2023-07-13T06:47:36;4.43;;;0.30;;
78120;SDS011;67585;44.802;10.332;2023-07-13T06:50:01;3.97;;;1.05;;
78120;SDS011;67585;44.802;10.332;2023-07-13T06:52:27;6.63;;;0.75;;
78120;SDS011;67585;44.802;10.332;2023-07-13T06:54:52;5.70;;;0.77;;
78120;SDS011;67585;44.802;10.332;2023-07-13T06:57:17;7.88;;;1.02;;
78120;SDS011;67585;44.802;10.332;2023-07-13T06:59:43;8.23;;;1.52;;
78120;SDS011;67585;44.802;10.332;2023-07-13T07:02:09;4.43;;;0.63;;
78120;SDS011;67585;44.802;10.332;2023-07-13T07:04:36;7.93;;;0.82;;
78120;SDS011;67585;44.802;10.332;2023-07-13T07:07:01;6.20;;;0.80;;
78120;SDS011;67585;44.802;10.332;2023-07-13T07:09:27;10.73;;;1.85;;
78120;SDS011;67585;44.802;10.332;2023-07-13T07:11:55;5.07;;;0.93;;
78120;SDS011;67585;44.802;10.332;2023-07-13T07:14:20;6.28;;;1.13;;
78120;SDS011;67585;44.802;10.332;2023-07-13T07:16:46;11.18;;;1.08;;
78120;SDS011;67585;44.802;10.332;2023-07-13T07:19:11;9.50;;;0.50;;
78120;SDS011;67585;44.802;10.332;2023-07-13T07:21:36;9.45;;;1.02;;
78120;SDS011;67585;44.802;10.332;2023-07-13T07:24:02;11.48;;;0.40;;
78120;SDS011;67585;44.802;10.332;2023-07-13T07:26:29;7.22;;;0.50;;
78120;SDS011;67585;44.802;10.332;2023-07-13T07:28:55;6.13;;;0.43;;
78120;SDS011;67585;44.802;10.332;2023-07-13T07:31:20;7.18;;;0.70;;
78120;SDS011;67585;44.802;10.332;2023-07-13T07:33:45;5.88;;;0.60;;
78120;SDS011;67585;44.802;10.332;2023-07-13T07:36:11;9.30;;;0.80;;
78120;SDS011;67585;44.802;10.332;2023-07-13T07:38:36;8.70;;;0.43;;
78120;SDS011;67585;44.802;10.332;2023-07-13T07:41:03;8.32;;;0.40;;
78120;SDS011;67585;44.802;10.332;2023-07-13T07:43:29;6.70;;;0.60;;
78120;SDS011;67585;44.802;10.332;2023-07-13T07:45:55;6.88;;;1.15;;
78120;SDS011;67585;44.802;10.332;2023-07-13T07:48:20;8.18;;;0.52;;
78120;SDS011;67585;44.802;10.332;2023-07-13T07:50:45;10.75;;;1.00;;
78120;SDS011;67585;44.802;10.332;2023-07-13T07:53:11;5.03;;;0.32;;
78120;SDS011;67585;44.802;10.332;2023-07-13T07:55:37;4.85;;;0.75;;
78120;SDS011;67585;44.802;10.332;2023-07-13T07:58:04;5.00;;;0.82;;
78120;SDS011;67585;44.802;10.332;2023-07-13T08:00:30;9.50;;;0.65;;
78120;SDS011;67585;44.802;10.332;2023-07-13T08:02:57;8.70;;;1.48;;
78120;SDS011;67585;44.802;10.332;2023-07-13T08:05:22;9.93;;;0.60;;
78120;SDS011;67585;44.802;10.332;2023-07-13T08:07:48;5.80;;;1.27;;
78120;SDS011;67585;44.802;10.332;2023-07-13T08:10:13;7.72;;;0.65;;
78120;SDS011;67585;44.802;10.332;2023-07-13T08:12:39;7.03;;;0.35;;
78120;SDS011;67585;44.802;10.332;2023-07-13T08:15:06;3.92;;;0.45;;
78120;SDS011;67585;44.802;10.332;2023-07-13T08:17:35;6.50;;;0.20;;
78120;SDS011;67585;44.802;10.332;2023-07-13T08:20:01;4.47;;;0.73;;
78120;SDS011;67585;44.802;10.332;2023-07-13T08:22:26;3.63;;;0.30;;
78120;SDS011;67585;44.802;10.332;2023-07-13T08:24:52;6.07;;;0.63;;
78120;SDS011;67585;44.802;10.332;2023-07-13T08:27:24;3.72;;;0.32;;
78120;SDS011;67585;44.802;10.332;2023-07-13T08:29:50;4.28;;;0.38;;
78120;SDS011;67585;44.802;10.332;2023-07-13T08:32:16;4.70;;;0.50;;
78120;SDS011;67585;44.802;10.332;2023-07-13T08:34:43;5.10;;;1.05;;
78120;SDS011;67585;44.802;10.332;2023-07-13T08:37:09;5.78;;;0.70;;
78120;SDS011;67585;44.802;10.332;2023-07-13T08:39:34;8.50;;;0.95;;
78120;SDS011;67585;44.802;10.332;2023-07-13T08:42:25;3.80;;;0.40;;
78120;SDS011;67585;44.802;10.332;2023-07-13T08:47:39;4.13;;;0.77;;
78120;SDS011;67585;44.802;10.332;2023-07-13T08:50:13;6.07;;;1.00;;
78120;SDS011;67585;44.802;10.332;2023-07-13T08:52:43;16.13;;;1.70;;
78120;SDS011;67585;44.802;10.332;2023-07-13T08:55:16;6.97;;;0.60;;
78120;SDS011;67585;44.802;10.332;2023-07-13T08:57:46;5.75;;;0.50;;
78120;SDS011;67585;44.802;10.332;2023-07-13T09:00:18;7.05;;;1.67;;
78120;SDS011;67585;44.802;10.332;2023-07-13T09:02:54;6.72;;;1.33;;
78120;SDS011;67585;44.802;10.332;2023-07-13T09:05:25;7.95;;;0.70;;
78120;SDS011;67585;44.802;10.332;2023-07-13T09:11:12;4.72;;;0.40;;
78120;SDS011;67585;44.802;10.332;2023-07-13T09:16:16;5.05;;;0.55;;
78120;SDS011;67585;44.802;10.332;2023-07-13T09:18:46;8.30;;;1.13;;
78120;SDS011;67585;44.802;10.332;2023-07-13T09:23:42;9.57;;;1.48;;
78120;SDS011;67585;44.802;10.332;2023-07-13T09:26:14;4.57;;;0.98;;
78120;SDS011;67585;44.802;10.332;2023-07-13T09:28:45;6.95;;;0.70;;
78120;SDS011;67585;44.802;10.332;2023-07-13T09:31:36;9.63;;;1.50;;
78120;SDS011;67585;44.802;10.332;2023-07-13T09:34:10;11.40;;;1.20;;
78120;SDS011;67585;44.802;10.332;2023-07-13T09:36:36;10.27;;;1.55;;
78120;SDS011;67585;44.802;10.332;2023-07-13T09:39:03;6.25;;;0.95;;
78120;SDS011;67585;44.802;10.332;2023-07-13T09:41:47;10.77;;;1.42;;
78120;SDS011;67585;44.802;10.332;2023-07-13T09:44:26;9.45;;;1.45;;
78120;SDS011;67585;44.802;10.332;2023-07-13T09:48:03;6.70;;;1.08;;
78120;SDS011;67585;44.802;10.332;2023-07-13T09:50:10;9.00;;;2.55;;
78120;SDS011;67585;44.802;10.332;2023-07-13T09:55:25;7.72;;;1.25;;
78120;SDS011;67585;44.802;10.332;2023-07-13T09:58:19;7.78;;;1.38;;
78120;SDS011;67585;44.802;10.332;2023-07-13T10:00:59;7.40;;;1.92;;
78120;SDS011;67585;44.802;10.332;2023-07-13T10:03:32;9.25;;;1.30;;
78120;SDS011;67585;44.802;10.332;2023-07-13T10:06:19;8.80;;;0.82;;
78120;SDS011;67585;44.802;10.332;2023-07-13T10:08:47;8.60;;;1.50;;
78120;SDS011;67585;44.802;10.332;2023-07-13T10:11:20;6.43;;;1.27;;
78120;SDS011;67585;44.802;10.332;2023-07-13T10:13:58;11.65;;;1.88;;
78120;SDS011;67585;44.802;10.332;2023-07-13T10:18:59;8.30;;;1.73;;
78120;SDS011;67585;44.802;10.332;2023-07-13T10:21:39;11.00;;;1.35;;
78120;SDS011;67585;44.802;10.332;2023-07-13T10:24:24;5.40;;;1.33;;
78120;SDS011;67585;44.802;10.332;2023-07-13T10:27:18;5.55;;;1.13;;
78120;SDS011;67585;44.802;10.332;2023-07-13T10:29:45;5.22;;;0.85;;
78120;SDS011;67585;44.802;10.332;2023-07-13T10:32:14;9.23;;;0.95;;
78120;SDS011;67585;44.802;10.332;2023-07-13T10:34:40;6.15;;;1.02;;
78120;SDS011;67585;44.802;10.332;2023-07-13T10:37:18;6.90;;;1.42;;
78120;SDS011;67585;44.802;10.332;2023-07-13T10:39:47;8.93;;;1.50;;
78120;SDS011;67585;44.802;10.332;2023-07-13T10:42:18;9.02;;;1.60;;
78120;SDS011;67585;44.802;10.332;2023-07-13T10:44:52;11.00;;;1.52;;
78120;SDS011;67585;44.802;10.332;2023-07-13T10:47:18;7.78;;;0.95;;
78120;SDS011;67585;44.802;10.332;2023-07-13T10:49:43;8.48;;;1.33;;
78120;SDS011;67585;44.802;10.332;2023-07-13T10:55:39;7.45;;;2.72;;
78120;SDS011;67585;44.802;10.332;2023-07-13T11:00:51;7.35;;;2.60;;
78120;SDS011;67585;44.802;10.332;2023-07-13T11:03:19;6.50;;;1.60;;
78120;SDS011;67585;44.802;10.332;2023-07-13T11:05:51;16.30;;;1.98;;
78120;SDS011;67585;44.802;10.332;2023-07-13T11:08:33;8.13;;;1.92;;
78120;SDS011;67585;44.802;10.332;2023-07-13T11:11:11;7.75;;;2.40;;
78120;SDS011;67585;44.802;10.332;2023-07-13T11:23:42;7.03;;;1.88;;
78120;SDS011;67585;44.802;10.332;2023-07-13T11:31:40;9.90;;;2.35;;
78120;SDS011;67585;44.802;10.332;2023-07-13T11:34:12;9.95;;;2.30;;
78120;SDS011;67585;44.802;10.332;2023-07-13T11:36:42;10.13;;;2.58;;
78120;SDS011;67585;44.802;10.332;2023-07-13T11:39:28;10.00;;;2.25;;
78120;SDS011;67585;44.802;10.332;2023-07-13T11:41:56;10.23;;;3.38;;
78120;SDS011;67585;44.802;10.332;2023-07-13T11:44:25;11.70;;;2.08;;
78120;SDS011;67585;44.802;10.332;2023-07-13T11:46:55;11.07;;;2.13;;
78120;SDS011;67585;44.802;10.332;2023-07-13T11:49:25;10.05;;;2.28;;
78120;SDS011;67585;44.802;10.332;2023-07-13T11:51:52;14.15;;;2.35;;
78120;SDS011;67585;44.802;10.332;2023-07-13T11:56:52;17.52;;;3.17;;
78120;SDS011;67585;44.802;10.332;2023-07-13T11:59:20;15.40;;;2.30;;
78120;SDS011;67585;44.802;10.332;2023-07-13T12:01:47;11.15;;;3.08;;
78120;SDS011;67585;44.802;10.332;2023-07-13T12:04:22;11.35;;;3.03;;
78120;SDS011;67585;44.802;10.332;2023-07-13T12:07:04;7.90;;;2.63;;
78120;SDS011;67585;44.802;10.332;2023-07-13T12:09:32;14.50;;;3.63;;
78120;SDS011;67585;44.802;10.332;2023-07-13T12:12:01;13.63;;;2.75;;
78120;SDS011;67585;44.802;10.332;2023-07-13T12:14:27;7.80;;;2.05;;
78120;SDS011;67585;44.802;10.332;2023-07-13T12:16:53;10.75;;;2.17;;
78120;SDS011;67585;44.802;10.332;2023-07-13T12:19:23;13.65;;;3.03;;
78120;SDS011;67585;44.802;10.332;2023-07-13T12:21:53;10.38;;;3.05;;
78120;SDS011;67585;44.802;10.332;2023-07-13T12:24:21;11.52;;;3.45;;
78120;SDS011;67585;44.802;10.332;2023-07-13T12:26:58;9.07;;;2.78;;
78120;SDS011;67585;44.802;10.332;2023-07-13T12:29:26;21.13;;;3.65;;
78120;SDS011;67585;44.802;10.332;2023-07-13T12:31:52;12.80;;;3.15;;
78120;SDS011;67585;44.802;10.332;2023-07-13T12:34:19;9.23;;;3.08;;
78120;SDS011;67585;44.802;10.332;2023-07-13T12:36:51;11.40;;;3.10;;
78120;SDS011;67585;44.802;10.332;2023-07-13T12:39:22;10.27;;;2.85;;
78120;SDS011;67585;44.802;10.332;2023-07-13T12:41:51;11.38;;;2.75;;
78120;SDS011;67585;44.802;10.332;2023-07-13T12:44:18;15.27;;;3.03;;
78120;SDS011;67585;44.802;10.332;2023-07-13T12:47:14;10.68;;;3.28;;
78120;SDS011;67585;44.802;10.332;2023-07-13T12:49:43;9.75;;;2.63;;
78120;SDS011;67585;44.802;10.332;2023-07-13T12:52:17;12.30;;;3.25;;
78120;SDS011;67585;44.802;10.332;2023-07-13T12:54:54;9.73;;;3.28;;
78120;SDS011;67585;44.802;10.332;2023-07-13T12:57:22;17.10;;;5.25;;
78120;SDS011;67585;44.802;10.332;2023-07-13T12:59:51;12.25;;;2.72;;
78120;SDS011;67585;44.802;10.332;2023-07-13T13:02:31;14.88;;;2.42;;
78120;SDS011;67585;44.802;10.332;2023-07-13T13:04:59;8.73;;;2.53;;
78120;SDS011;67585;44.802;10.332;2023-07-13T13:07:25;9.75;;;2.53;;
78120;SDS011;67585;44.802;10.332;2023-07-13T13:09:51;13.63;;;3.45;;
78120;SDS011;67585;44.802;10.332;2023-07-13T13:12:18;12.20;;;2.25;;
78120;SDS011;67585;44.802;10.332;2023-07-13T13:14:45;12.48;;;3.35;;
78120;SDS011;67585;44.802;10.332;2023-07-13T13:17:16;11.10;;;2.35;;
78120;SDS011;67585;44.802;10.332;2023-07-13T13:19:49;9.55;;;2.35;;
78120;SDS011;67585;44.802;10.332;2023-07-13T13:22:18;8.60;;;3.38;;
78120;SDS011;67585;44.802;10.332;2023-07-13T13:24:43;11.18;;;2.85;;
78120;SDS011;67585;44.802;10.332;2023-07-13T13:27:14;9.50;;;3.22;;
78120;SDS011;67585;44.802;10.332;2023-07-13T13:29:42;10.27;;;2.83;;
78120;SDS011;67585;44.802;10.332;2023-07-13T13:32:09;12.07;;;3.58;;
78120;SDS011;67585;44.802;10.332;2023-07-13T13:34:39;11.70;;;3.78;;
78120;SDS011;67585;44.802;10.332;2023-07-13T13:37:09;9.57;;;2.78;;
78120;SDS011;67585;44.802;10.332;2023-07-13T13:39:43;9.05;;;2.42;;
78120;SDS011;67585;44.802;10.332;2023-07-13T13:42:09;12.98;;;3.10;;
78120;SDS011;67585;44.802;10.332;2023-07-13T13:44:35;7.78;;;3.55;;
78120;SDS011;67585;44.802;10.332;2023-07-13T13:47:00;10.05;;;3.15;;
78120;SDS011;67585;44.802;10.332;2023-07-13T13:49:27;11.18;;;2.45;;
78120;SDS011;67585;44.802;10.332;2023-07-13T13:51:54;14.18;;;3.00;;
78120;SDS011;67585;44.802;10.332;2023-07-13T13:54:20;11.05;;;3.05;;
78120;SDS011;67585;44.802;10.332;2023-07-13T13:59:13;14.95;;;4.55;;
78120;SDS011;67585;44.802;10.332;2023-07-13T14:01:39;12.48;;;4.60;;
78120;SDS011;67585;44.802;10.332;2023-07-13T14:04:06;8.07;;;2.65;;
78120;SDS011;67585;44.802;10.332;2023-07-13T14:06:39;9.45;;;3.95;;
78120;SDS011;67585;44.802;10.332;2023-07-13T14:09:05;13.27;;;2.97;;
78120;SDS011;67585;44.802;10.332;2023-07-13T14:11:36;12.75;;;2.80;;
78120;SDS011;67585;44.802;10.332;2023-07-13T14:14:01;13.48;;;3.25;;
78120;SDS011;67585;44.802;10.332;2023-07-13T14:16:30;11.95;;;3.20;;
78120;SDS011;67585;44.802;10.332;2023-07-13T14:18:59;9.95;;;2.63;;
78120;SDS011;67585;44.802;10.332;2023-07-13T14:21:26;11.98;;;3.67;;
78120;SDS011;67585;44.802;10.332;2023-07-13T14:23:53;9.57;;;2.60;;
78120;SDS011;67585;44.802;10.332;2023-07-13T14:28:49;8.65;;;2.70;;
78120;SDS011;67585;44.802;10.332;2023-07-13T14:31:17;9.82;;;3.47;;
78120;SDS011;67585;44.802;10.332;2023-07-13T14:33:44;8.63;;;2.58;;
78120;SDS011;67585;44.802;10.332;2023-07-13T14:36:29;16.48;;;3.35;;
78120;SDS011;67585;44.802;10.332;2023-07-13T14:38:57;12.05;;;3.55;;
78120;SDS011;67585;44.802;10.332;2023-07-13T14:41:24;11.02;;;2.90;;
78120;SDS011;67585;44.802;10.332;2023-07-13T14:43:50;10.13;;;4.07;;
78120;SDS011;67585;44.802;10.332;2023-07-13T14:46:22;7.38;;;2.00;;
78120;SDS011;67585;44.802;10.332;2023-07-13T14:48:54;10.23;;;2.38;;
78120;SDS011;67585;44.802;10.332;2023-07-13T14:51:30;17.45;;;2.70;;
78120;SDS011;67585;44.802;10.332;2023-07-13T14:53:56;11.88;;;2.10;;
78120;SDS011;67585;44.802;10.332;2023-07-13T14:56:22;8.93;;;2.05;;
78120;SDS011;67585;44.802;10.332;2023-07-13T14:58:47;12.38;;;2.90;;
78120;SDS011;67585;44.802;10.332;2023-07-13T15:01:13;14.13;;;2.47;;
78120;SDS011;67585;44.802;10.332;2023-07-13T15:03:41;9.73;;;1.95;;
78120;SDS011;67585;44.802;10.332;2023-07-13T15:06:10;11.00;;;2.28;;
78120;SDS011;67585;44.802;10.332;2023-07-13T15:08:37;8.10;;;1.60;;
78120;SDS011;67585;44.802;10.332;2023-07-13T15:11:03;12.73;;;2.50;;
78120;SDS011;67585;44.802;10.332;2023-07-13T15:13:29;13.60;;;2.50;;
78120;SDS011;67585;44.802;10.332;2023-07-13T15:15:55;11.95;;;3.08;;
78120;SDS011;67585;44.802;10.332;2023-07-13T15:18:21;15.20;;;2.05;;
78120;SDS011;67585;44.802;10.332;2023-07-13T15:20:49;15.48;;;2.05;;
78120;SDS011;67585;44.802;10.332;2023-07-13T15:23:17;9.23;;;1.73;;
78120;SDS011;67585;44.802;10.332;2023-07-13T15:25:43;12.93;;;2.22;;
78120;SDS011;67585;44.802;10.332;2023-07-13T15:28:10;9.57;;;2.13;;